createdAt,value
2017-01-08T00:00:20.503Z,72.63
2017-01-08T00:01:20.514Z,72.25
2017-01-08T00:02:20.523Z,72.25
2017-01-08T00:03:20.558Z,72.25
2017-01-08T00:04:20.539Z,72.63
2017-01-08T00:05:20.552Z,72.25
2017-01-08T00:06:20.556Z,72.53
2017-01-08T00:07:20.568Z,72.44
2017-01-08T00:08:20.582Z,72.63
2017-01-08T00:09:20.589Z,72.44
2017-01-08T00:10:20.593Z,72.44
2017-01-08T00:11:20.606Z,72.25
2017-01-08T00:12:20.617Z,72.16
2017-01-08T00:13:20.622Z,72.34
2017-01-08T00:14:20.633Z,72.44
2017-01-08T00:15:20.647Z,72.44
2017-01-08T00:16:20.652Z,72.25
2017-01-08T00:17:20.664Z,72.34
2017-01-08T00:18:20.672Z,72.82
2017-01-08T00:19:20.680Z,72.63
2017-01-08T00:20:20.688Z,72.44
2017-01-08T00:21:20.698Z,72.53
2017-01-08T00:22:20.707Z,72.34
2017-01-08T00:23:20.717Z,72.25
2017-01-08T00:24:20.723Z,72.25
2017-01-08T00:25:20.738Z,72.25
2017-01-08T00:26:20.743Z,72.25
2017-01-08T00:27:20.757Z,72.53
2017-01-08T00:28:20.767Z,72.34
2017-01-08T00:29:20.774Z,72.63
2017-01-08T00:30:20.784Z,73.01
2017-01-08T00:31:20.791Z,72.16
2017-01-08T00:32:20.801Z,72.44
2017-01-08T00:33:20.818Z,72.63
2017-01-08T00:34:20.820Z,72.44
2017-01-08T00:35:20.827Z,72.92
2017-01-08T00:36:20.838Z,72.73
2017-01-08T00:37:20.852Z,72.82
2017-01-08T00:38:20.862Z,73.01
2017-01-08T00:39:20.868Z,73.11
2017-01-08T00:40:20.880Z,72.82
2017-01-08T00:41:20.886Z,72.44
2017-01-08T00:42:20.892Z,72.82
2017-01-08T00:43:21.328Z,72.73
2017-01-08T00:44:20.917Z,72.92
2017-01-08T00:45:20.926Z,72.73
2017-01-08T00:46:20.931Z,72.92
2017-01-08T00:47:20.942Z,72.53
2017-01-08T00:48:20.953Z,72.92
2017-01-08T00:49:20.964Z,72.73
2017-01-08T00:50:20.972Z,72.73
2017-01-08T00:51:20.981Z,72.73
2017-01-08T00:52:20.991Z,72.92
2017-01-08T00:53:21.003Z,72.82
2017-01-08T00:54:21.009Z,72.82
2017-01-08T00:55:21.019Z,72.48
2017-01-08T00:56:21.027Z,72.92
2017-01-08T00:57:21.036Z,72.44
2017-01-08T00:58:21.048Z,72.86
2017-01-08T00:59:21.056Z,72.44
2017-01-08T01:00:21.065Z,72.92
2017-01-08T01:01:21.075Z,72.92
2017-01-08T01:02:21.084Z,72.63
2017-01-08T01:03:21.096Z,72.96
2017-01-08T01:04:21.100Z,72.57
2017-01-08T01:05:21.112Z,72.77
2017-01-08T01:06:21.123Z,72.73
2017-01-08T01:07:21.136Z,72.73
2017-01-08T01:08:21.141Z,72.86
2017-01-08T01:09:21.157Z,72.44
2017-01-08T01:10:21.164Z,72.67
2017-01-08T01:11:21.175Z,72.48
2017-01-08T01:12:21.186Z,72.92
2017-01-08T01:13:21.198Z,73.11
2017-01-08T01:14:21.198Z,73.01
2017-01-08T01:15:21.209Z,72.29
2017-01-08T01:16:21.217Z,72.92
2017-01-08T01:17:21.227Z,72.86
2017-01-08T01:18:21.236Z,72.86
2017-01-08T01:19:21.270Z,72.96
2017-01-08T01:20:21.254Z,72.77
2017-01-08T01:21:21.263Z,72.77
2017-01-08T01:22:21.276Z,72.77
2017-01-08T01:23:21.285Z,72.67
2017-01-08T01:24:21.324Z,72.48
2017-01-08T01:25:21.303Z,72.38
2017-01-08T01:26:21.314Z,72.38
2017-01-08T01:27:21.331Z,72.67
2017-01-08T01:28:21.338Z,72.29
2017-01-08T01:29:21.344Z,72.48
2017-01-08T01:30:21.353Z,72.48
2017-01-08T01:31:21.362Z,72.48
2017-01-08T01:32:21.370Z,72.38
2017-01-08T01:33:21.378Z,72.48
2017-01-08T01:34:21.389Z,72.77
2017-01-08T01:35:21.396Z,72.77
2017-01-08T01:36:21.409Z,72.77
2017-01-08T01:37:21.417Z,72.77
2017-01-08T01:38:21.431Z,72.67
2017-01-08T01:39:21.432Z,72.67
2017-01-08T01:40:21.446Z,73.14
2017-01-08T01:41:21.458Z,72.38
2017-01-08T01:42:21.469Z,72.48
2017-01-08T01:43:21.476Z,72.48
2017-01-08T01:44:21.487Z,72.29
2017-01-08T01:45:21.496Z,72.19
2017-01-08T01:46:21.504Z,72.38
2017-01-08T01:47:21.517Z,72.38
2017-01-08T01:48:21.523Z,72.29
2017-01-08T01:49:21.538Z,72.29
2017-01-08T01:50:21.541Z,72.67
2017-01-08T01:51:21.551Z,72.48
2017-01-08T01:52:21.562Z,72.48
2017-01-08T01:53:21.570Z,72.38
2017-01-08T01:54:21.581Z,73.05
2017-01-08T01:55:21.589Z,72.67
2017-01-08T01:56:21.603Z,72.57
2017-01-08T01:57:21.610Z,72.29
2017-01-08T01:58:21.617Z,72.29
2017-01-08T01:59:21.627Z,72.29
2017-01-08T02:00:21.639Z,72.67
2017-01-08T02:01:21.647Z,72.29
2017-01-08T02:02:21.664Z,72.19
2017-01-08T02:03:21.701Z,72.57
2017-01-08T02:04:21.678Z,72.29
2017-01-08T02:05:21.682Z,72.29
2017-01-08T02:06:21.700Z,72.38
2017-01-08T02:07:21.705Z,72.29
2017-01-08T02:08:21.716Z,72.48
2017-01-08T02:09:21.724Z,72.29
2017-01-08T02:10:21.742Z,72.48
2017-01-08T02:11:21.746Z,72.67
2017-01-08T02:12:21.753Z,72.48
2017-01-08T02:13:21.784Z,72.48
2017-01-08T02:14:21.774Z,72.29
2017-01-08T02:15:21.792Z,72.29
2017-01-08T02:16:21.791Z,72.29
2017-01-08T02:17:21.804Z,72.48
2017-01-08T02:18:21.812Z,72.57
2017-01-08T02:19:21.822Z,72.29
2017-01-08T02:20:21.845Z,72.38
2017-01-08T02:21:21.874Z,72.29
2017-01-08T02:22:21.848Z,72.67
2017-01-08T02:23:21.862Z,72.67
2017-01-08T02:24:21.869Z,72.57
2017-01-08T02:25:21.879Z,72.57
2017-01-08T02:26:21.885Z,72.29
2017-01-08T02:27:21.896Z,72.29
2017-01-08T02:28:22.043Z,72.29
2017-01-08T02:29:21.914Z,72.29
2017-01-08T02:30:21.924Z,72.29
2017-01-08T02:31:21.933Z,72.29
2017-01-08T02:32:21.943Z,72.48
2017-01-08T02:33:21.957Z,72.38
2017-01-08T02:34:21.964Z,72.48
2017-01-08T02:35:21.976Z,72.29
2017-01-08T02:36:21.984Z,72.29
2017-01-08T02:37:21.998Z,72.38
2017-01-08T02:38:22.004Z,72.67
2017-01-08T02:39:22.012Z,72.57
2017-01-08T02:40:22.026Z,72.38
2017-01-08T02:41:22.031Z,72.48
2017-01-08T02:42:22.037Z,72.57
2017-01-08T02:43:22.051Z,72.57
2017-01-08T02:44:22.059Z,72.67
2017-01-08T02:45:22.069Z,72.38
2017-01-08T02:46:22.084Z,72.57
2017-01-08T02:47:22.090Z,72.57
2017-01-08T02:48:22.109Z,72.38
2017-01-08T02:49:22.109Z,72.48
2017-01-08T02:50:22.118Z,72.38
2017-01-08T02:51:22.130Z,72.29
2017-01-08T02:52:22.135Z,72.29
2017-01-08T02:53:22.148Z,72.67
2017-01-08T02:54:22.157Z,72.29
2017-01-08T02:55:22.165Z,72.29
2017-01-08T02:56:22.197Z,72.29
2017-01-08T02:57:22.184Z,72.48
2017-01-08T02:58:22.193Z,72.38
2017-01-08T02:59:22.201Z,72.77
2017-01-08T03:00:22.217Z,72.67
2017-01-08T03:01:22.227Z,72.38
2017-01-08T03:02:22.234Z,72.38
2017-01-08T03:03:22.247Z,72.67
2017-01-08T03:04:22.254Z,72.67
2017-01-08T03:05:22.262Z,72.67
2017-01-08T03:06:22.269Z,72.48
2017-01-08T03:07:22.285Z,72.57
2017-01-08T03:08:22.289Z,72.48
2017-01-08T03:09:22.302Z,72.57
2017-01-08T03:10:22.308Z,72.48
2017-01-08T03:11:22.321Z,72.57
2017-01-08T03:12:22.330Z,72.57
2017-01-08T03:13:22.338Z,72.57
2017-01-08T03:14:22.348Z,72.48
2017-01-08T03:15:22.363Z,72.57
2017-01-08T03:16:22.366Z,72.67
2017-01-08T03:17:22.372Z,72.48
2017-01-08T03:18:22.384Z,72.48
2017-01-08T03:19:22.394Z,72.48
2017-01-08T03:20:22.409Z,72.48
2017-01-08T03:21:22.416Z,72.86
2017-01-08T03:22:22.423Z,72.48
2017-01-08T03:23:22.435Z,72.67
2017-01-08T03:24:22.445Z,72.57
2017-01-08T03:25:22.448Z,72.67
2017-01-08T03:26:22.460Z,72.48
2017-01-08T03:27:22.482Z,72.48
2017-01-08T03:28:22.481Z,72.57
2017-01-08T03:29:22.493Z,72.48
2017-01-08T03:30:22.501Z,72.57
2017-01-08T03:31:22.512Z,72.38
2017-01-08T03:32:22.521Z,72.57
2017-01-08T03:33:22.530Z,72.67
2017-01-08T03:34:22.541Z,72.48
2017-01-08T03:35:22.550Z,72.67
2017-01-08T03:36:22.560Z,72.48
2017-01-08T03:37:22.570Z,72.57
2017-01-08T03:38:22.581Z,72.48
2017-01-08T03:39:22.588Z,72.57
2017-01-08T03:40:22.600Z,72.48
2017-01-08T03:41:22.609Z,72.57
2017-01-08T03:42:22.618Z,72.48
2017-01-08T03:43:22.626Z,72.57
2017-01-08T03:44:22.639Z,72.48
2017-01-08T03:45:22.647Z,72.48
2017-01-08T03:46:22.660Z,72.57
2017-01-08T03:47:22.666Z,72.57
2017-01-08T03:48:22.679Z,72.57
2017-01-08T03:49:22.711Z,72.57
2017-01-08T03:50:22.720Z,72.67
2017-01-08T03:51:22.707Z,72.67
2017-01-08T03:52:22.717Z,72.67
2017-01-08T03:53:22.728Z,72.38
2017-01-08T03:54:22.735Z,72.38
2017-01-08T03:55:22.745Z,72.67
2017-01-08T03:56:22.757Z,72.38
2017-01-08T03:57:22.764Z,72.48
2017-01-08T03:58:22.772Z,72.19
2017-01-08T03:59:22.813Z,72.29
2017-01-08T04:00:22.795Z,72.67
2017-01-08T04:01:22.828Z,72.48
2017-01-08T04:02:22.814Z,72.48
2017-01-08T04:03:22.826Z,72.48
2017-01-08T04:04:22.832Z,72.67
2017-01-08T04:05:22.843Z,72.29
2017-01-08T04:06:22.854Z,72.67
2017-01-08T04:07:22.864Z,72.48
2017-01-08T04:08:22.872Z,72.38
2017-01-08T04:09:22.880Z,72.48
2017-01-08T04:10:22.889Z,72.67
2017-01-08T04:11:22.900Z,72.29
2017-01-08T04:12:22.907Z,72.29
2017-01-08T04:13:22.917Z,72.48
2017-01-08T04:14:22.936Z,72.29
2017-01-08T04:15:22.939Z,72.29
2017-01-08T04:16:22.947Z,72.29
2017-01-08T04:17:22.958Z,72.57
2017-01-08T04:18:23.024Z,72.38
2017-01-08T04:19:22.978Z,72.38
2017-01-08T04:20:22.993Z,72.38
2017-01-08T04:21:22.998Z,72.67
2017-01-08T04:22:23.008Z,72.19
2017-01-08T04:23:23.020Z,72.38
2017-01-08T04:24:23.056Z,72.67
2017-01-08T04:25:23.041Z,72.1
2017-01-08T04:26:23.052Z,72.67
2017-01-08T04:27:23.061Z,72.48
2017-01-08T04:28:23.071Z,72.29
2017-01-08T04:29:23.078Z,72.19
2017-01-08T04:30:23.090Z,72.29
2017-01-08T04:31:23.099Z,72.38
2017-01-08T04:32:23.123Z,73.14
2017-01-08T04:33:23.125Z,72.38
2017-01-08T04:34:23.131Z,72.38
2017-01-08T04:35:23.137Z,72.29
2017-01-08T04:36:23.148Z,72.77
2017-01-08T04:37:23.160Z,72.77
2017-01-08T04:38:23.169Z,72.77
2017-01-08T04:39:23.179Z,72.29
2017-01-08T04:40:23.188Z,72.77
2017-01-08T04:41:23.199Z,72.77
2017-01-08T04:42:23.211Z,72.48
2017-01-08T04:43:23.219Z,72.77
2017-01-08T04:44:23.230Z,72.86
2017-01-08T04:45:23.243Z,72.96
2017-01-08T04:46:23.249Z,72.96
2017-01-08T04:47:23.259Z,72.77
2017-01-08T04:48:23.269Z,72.77
2017-01-08T04:49:23.281Z,72.96
2017-01-08T04:50:23.288Z,72.96
2017-01-08T04:51:23.299Z,72.86
2017-01-08T04:52:23.308Z,73.05
2017-01-08T04:53:23.318Z,72.48
2017-01-08T04:54:23.327Z,72.86
2017-01-08T04:55:23.341Z,73.05
2017-01-08T04:56:23.348Z,72.48
2017-01-08T04:57:23.360Z,72.67
2017-01-08T04:58:23.368Z,72.67
2017-01-08T04:59:23.380Z,72.86
2017-01-08T05:00:23.390Z,72.86
2017-01-08T05:01:23.398Z,72.86
2017-01-08T05:02:23.408Z,72.86
2017-01-08T05:03:23.416Z,72.86
2017-01-08T05:04:23.427Z,73.05
2017-01-08T05:05:23.445Z,72.96
2017-01-08T05:06:23.446Z,72.38
2017-01-08T05:07:23.459Z,73.05
2017-01-08T05:08:23.469Z,73.05
2017-01-08T05:09:23.481Z,73.05
2017-01-08T05:10:23.489Z,72.96
2017-01-08T05:11:23.498Z,72.86
2017-01-08T05:12:23.536Z,72.96
2017-01-08T05:13:23.523Z,72.86
2017-01-08T05:14:23.531Z,72.86
2017-01-08T05:15:23.541Z,73.43
2017-01-08T05:16:23.551Z,72.96
2017-01-08T05:17:23.560Z,72.86
2017-01-08T05:18:23.567Z,72.96
2017-01-08T05:19:23.583Z,72.86
2017-01-08T05:20:23.595Z,72.77
2017-01-08T05:21:23.606Z,73.43
2017-01-08T05:22:23.631Z,72.57
2017-01-08T05:23:23.623Z,72.38
2017-01-08T05:24:23.632Z,73.52
2017-01-08T05:25:23.647Z,73.43
2017-01-08T05:26:23.651Z,73.33
2017-01-08T05:27:23.666Z,72.86
2017-01-08T05:28:23.672Z,72.38
2017-01-08T05:29:23.683Z,73.33
2017-01-08T05:30:23.694Z,73.43
2017-01-08T05:31:23.699Z,73.14
2017-01-08T05:32:23.713Z,72.67
2017-01-08T05:33:23.719Z,73.43
2017-01-08T05:34:23.733Z,73.43
2017-01-08T05:35:23.740Z,73.33
2017-01-08T05:36:23.748Z,73.24
2017-01-08T05:37:23.758Z,72.67
2017-01-08T05:38:23.770Z,72.67
2017-01-08T05:39:23.785Z,72.48
2017-01-08T05:40:23.799Z,72.48
2017-01-08T05:41:23.803Z,72.71
2017-01-08T05:42:23.814Z,72.48
2017-01-08T05:43:23.824Z,72.57
2017-01-08T05:44:23.830Z,72.77
2017-01-08T05:45:23.850Z,73.37
2017-01-08T05:46:23.850Z,72.67
2017-01-08T05:47:23.860Z,72.86
2017-01-08T05:48:23.871Z,72.48
2017-01-08T05:49:23.885Z,73.52
2017-01-08T05:50:23.894Z,72.48
2017-01-08T05:51:23.902Z,72.67
2017-01-08T05:52:23.911Z,72.86
2017-01-08T05:53:23.924Z,72.67
2017-01-08T05:54:23.932Z,72.67
2017-01-08T05:55:23.940Z,72.86
2017-01-08T05:56:23.952Z,73.43
2017-01-08T05:57:23.959Z,73.43
2017-01-08T05:58:23.980Z,72.96
2017-01-08T05:59:23.980Z,72.67
2017-01-08T06:00:23.990Z,72.96
2017-01-08T06:01:24.002Z,72.77
2017-01-08T06:02:24.014Z,72.67
2017-01-08T06:03:24.025Z,72.67
2017-01-08T06:04:24.033Z,73.46
2017-01-08T06:05:24.044Z,72.99
2017-01-08T06:06:24.056Z,73.33
2017-01-08T06:07:24.067Z,73.46
2017-01-08T06:08:24.074Z,73.43
2017-01-08T06:09:24.083Z,73.27
2017-01-08T06:10:24.093Z,73.43
2017-01-08T06:11:24.103Z,73.27
2017-01-08T06:12:24.116Z,73.33
2017-01-08T06:13:24.126Z,73.14
2017-01-08T06:14:24.142Z,73.37
2017-01-08T06:15:24.144Z,73.05
2017-01-08T06:16:24.154Z,73.46
2017-01-08T06:17:24.167Z,73.27
2017-01-08T06:18:24.179Z,73.33
2017-01-08T06:19:24.190Z,73.37
2017-01-08T06:20:24.198Z,73.43
2017-01-08T06:21:24.210Z,72.99
2017-01-08T06:22:24.213Z,73.33
2017-01-08T06:23:24.228Z,73.43
2017-01-08T06:24:24.237Z,73.37
2017-01-08T06:25:24.249Z,73.46
2017-01-08T06:26:24.257Z,73.08
2017-01-08T06:27:24.264Z,73.37
2017-01-08T06:28:24.278Z,72.8
2017-01-08T06:29:24.286Z,72.86
2017-01-08T06:30:24.301Z,72.89
2017-01-08T06:31:24.307Z,73.08
2017-01-08T06:32:24.319Z,73.37
2017-01-08T06:33:24.329Z,73.37
2017-01-08T06:34:24.338Z,73.18
2017-01-08T06:35:24.348Z,73.08
2017-01-08T06:36:24.359Z,73.08
2017-01-08T06:37:24.370Z,72.61
2017-01-08T06:38:24.379Z,73.08
2017-01-08T06:39:24.389Z,72.8
2017-01-08T06:40:24.398Z,72.8
2017-01-08T06:41:24.413Z,73.18
2017-01-08T06:42:24.420Z,73.14
2017-01-08T06:43:24.435Z,72.96
2017-01-08T06:44:24.439Z,73.18
2017-01-08T06:45:24.452Z,72.99
2017-01-08T06:46:24.464Z,73.14
2017-01-08T06:47:24.473Z,73.27
2017-01-08T06:48:24.483Z,72.89
2017-01-08T06:49:24.491Z,72.99
2017-01-08T06:50:24.504Z,73.18
2017-01-08T06:51:24.514Z,73.27
2017-01-08T06:52:24.526Z,73.08
2017-01-08T06:53:24.535Z,72.89
2017-01-08T06:54:24.544Z,73.08
2017-01-08T06:55:24.557Z,73.27
2017-01-08T06:56:24.566Z,73.08
2017-01-08T06:57:24.579Z,73.18
2017-01-08T06:58:24.584Z,72.71
2017-01-08T06:59:24.594Z,73.18
2017-01-08T07:00:24.605Z,73.08
2017-01-08T07:01:24.615Z,73.18
2017-01-08T07:02:24.629Z,73.18
2017-01-08T07:03:24.639Z,72.61
2017-01-08T07:04:24.648Z,72.8
2017-01-08T07:05:24.656Z,72.8
2017-01-08T07:06:24.667Z,72.8
2017-01-08T07:07:24.676Z,72.99
2017-01-08T07:08:24.691Z,72.99
2017-01-08T07:09:24.701Z,72.71
2017-01-08T07:10:24.708Z,72.99
2017-01-08T07:11:24.721Z,72.89
2017-01-08T07:12:24.731Z,72.89
2017-01-08T07:13:24.742Z,73.08
2017-01-08T07:14:24.754Z,73.18
2017-01-08T07:15:24.757Z,73.27
2017-01-08T07:16:24.772Z,73.18
2017-01-08T07:17:24.781Z,72.99
2017-01-08T07:18:24.792Z,73.18
2017-01-08T07:19:24.803Z,73.08
2017-01-08T07:20:24.813Z,73.18
2017-01-08T07:21:24.818Z,73.27
2017-01-08T07:22:24.830Z,73.18
2017-01-08T07:23:24.840Z,73.08
2017-01-08T07:24:24.851Z,73.18
2017-01-08T07:25:24.865Z,72.89
2017-01-08T07:26:24.872Z,72.89
2017-01-08T07:27:24.883Z,72.8
2017-01-08T07:28:24.892Z,72.89
2017-01-08T07:29:24.904Z,73.37
2017-01-08T07:30:24.912Z,72.61
2017-01-08T07:31:24.923Z,72.8
2017-01-08T07:32:24.930Z,73.27
2017-01-08T07:33:24.944Z,73.27
2017-01-08T07:34:24.954Z,73.18
2017-01-08T07:35:24.961Z,73.18
2017-01-08T07:36:24.971Z,73.08
2017-01-08T07:37:24.983Z,72.8
2017-01-08T07:38:25.000Z,73.18
2017-01-08T07:39:25.004Z,72.61
2017-01-08T07:40:25.015Z,73.27
2017-01-08T07:41:25.025Z,73.27
2017-01-08T07:42:25.036Z,73.18
2017-01-08T07:43:25.045Z,72.61
2017-01-08T07:44:25.057Z,72.71
2017-01-08T07:45:25.065Z,73.18
2017-01-08T07:46:25.076Z,72.89
2017-01-08T07:47:25.089Z,72.89
2017-01-08T07:48:25.094Z,72.89
2017-01-08T07:49:25.105Z,72.61
2017-01-08T07:50:25.116Z,72.61
2017-01-08T07:51:25.125Z,72.89
2017-01-08T07:52:25.136Z,72.89
2017-01-08T07:53:25.147Z,72.99
2017-01-08T07:54:25.155Z,73.37
2017-01-08T07:55:25.167Z,72.89
2017-01-08T07:56:25.179Z,72.99
2017-01-08T07:57:25.186Z,72.71
2017-01-08T07:58:25.199Z,72.71
2017-01-08T07:59:25.208Z,72.8
2017-01-08T08:00:25.221Z,73.37
2017-01-08T08:01:25.229Z,72.99
2017-01-08T08:02:25.243Z,72.61
2017-01-08T08:03:25.245Z,72.89
2017-01-08T08:04:25.268Z,72.71
2017-01-08T08:05:25.268Z,73.18
2017-01-08T08:06:25.280Z,73.27
2017-01-08T08:07:25.291Z,73.18
2017-01-08T08:08:25.300Z,73.37
2017-01-08T08:09:25.306Z,73.18
2017-01-08T08:10:25.319Z,73.08
2017-01-08T08:11:25.333Z,73.18
2017-01-08T08:12:25.344Z,72.99
2017-01-08T08:13:25.352Z,73.18
2017-01-08T08:14:25.363Z,73.18
2017-01-08T08:15:25.412Z,73.18
2017-01-08T08:16:25.381Z,73.27
2017-01-08T08:17:25.397Z,73.18
2017-01-08T08:18:25.404Z,73.27
2017-01-08T08:19:25.412Z,73.08
2017-01-08T08:20:25.425Z,73.18
2017-01-08T08:21:25.436Z,73.08
2017-01-08T08:22:25.441Z,72.99
2017-01-08T08:23:25.453Z,73.18
2017-01-08T08:24:25.460Z,73.18
2017-01-08T08:25:25.473Z,72.8
2017-01-08T08:26:25.481Z,73.18
2017-01-08T08:27:25.501Z,73.18
2017-01-08T08:28:25.503Z,73.18
2017-01-08T08:29:25.515Z,73.08
2017-01-08T08:30:25.524Z,73.18
2017-01-08T08:31:25.535Z,73.18
2017-01-08T08:32:25.546Z,73.18
2017-01-08T08:33:25.555Z,73.18
2017-01-08T08:34:25.565Z,72.61
2017-01-08T08:35:25.576Z,73.37
2017-01-08T08:36:25.586Z,72.8
2017-01-08T08:37:25.594Z,72.89
2017-01-08T08:38:25.605Z,72.8
2017-01-08T08:39:25.617Z,72.89
2017-01-08T08:40:25.626Z,72.89
2017-01-08T08:41:25.636Z,72.71
2017-01-08T08:42:25.646Z,73.18
2017-01-08T08:43:25.686Z,72.8
2017-01-08T08:44:25.664Z,72.61
2017-01-08T08:45:25.789Z,73.56
2017-01-08T08:46:25.689Z,73.08
2017-01-08T08:47:25.769Z,73.18
2017-01-08T08:48:25.708Z,73.18
2017-01-08T08:49:25.840Z,73.08
2017-01-08T08:50:25.730Z,72.89
2017-01-08T08:51:25.747Z,72.89
2017-01-08T08:52:25.859Z,73.46
2017-01-08T08:53:25.763Z,72.61
2017-01-08T08:54:25.883Z,72.99
2017-01-08T08:55:25.780Z,72.71
2017-01-08T08:56:25.906Z,72.71
2017-01-08T08:57:25.803Z,73.18
2017-01-08T08:58:25.811Z,73.18
2017-01-08T08:59:25.829Z,73.27
2017-01-08T09:00:25.861Z,73.08
2017-01-08T09:01:25.939Z,73.18
2017-01-08T09:02:25.849Z,73.37
2017-01-08T09:03:26.112Z,73.18
2017-01-08T09:04:25.873Z,72.8
2017-01-08T09:05:25.979Z,73.18
2017-01-08T09:06:26.003Z,73.18
2017-01-08T09:07:25.906Z,73.18
2017-01-08T09:08:25.914Z,73.37
2017-01-08T09:09:25.926Z,73.27
2017-01-08T09:10:25.933Z,73.37
2017-01-08T09:11:25.945Z,73.18
2017-01-08T09:12:26.069Z,73.18
2017-01-08T09:13:25.965Z,73.08
2017-01-08T09:14:25.976Z,72.99
2017-01-08T09:15:25.988Z,73.18
2017-01-08T09:16:25.992Z,73.18
2017-01-08T09:17:26.008Z,73.18
2017-01-08T09:18:26.131Z,73.37
2017-01-08T09:19:26.220Z,73.18
2017-01-08T09:20:26.038Z,73.18
2017-01-08T09:21:26.050Z,73.18
2017-01-08T09:22:26.059Z,73.08
2017-01-08T09:23:26.261Z,72.99
2017-01-08T09:24:26.082Z,72.89
2017-01-08T09:25:26.184Z,72.61
2017-01-08T09:26:26.103Z,73.18
2017-01-08T09:27:26.224Z,73.18
2017-01-08T09:28:26.126Z,72.8
2017-01-08T09:29:26.137Z,73.37
2017-01-08T09:30:26.142Z,73.18
2017-01-08T09:31:26.153Z,73.37
2017-01-08T09:32:26.163Z,73.27
2017-01-08T09:33:26.172Z,73.18
2017-01-08T09:34:26.183Z,73.27
2017-01-08T09:35:26.191Z,73.18
2017-01-08T09:36:26.206Z,73.46
2017-01-08T09:37:26.329Z,73.08
2017-01-08T09:38:26.227Z,73.18
2017-01-08T09:39:26.347Z,73.08
2017-01-08T09:40:26.247Z,72.99
2017-01-08T09:41:26.371Z,72.99
2017-01-08T09:42:26.270Z,72.99
2017-01-08T09:43:26.275Z,72.99
2017-01-08T09:44:26.286Z,73.46
2017-01-08T09:45:26.298Z,72.99
2017-01-08T09:46:26.309Z,73.08
2017-01-08T09:47:26.319Z,72.61
2017-01-08T09:48:26.329Z,72.8
2017-01-08T09:49:26.339Z,73.37
2017-01-08T09:50:26.349Z,73.18
2017-01-08T09:51:26.360Z,73.18
2017-01-08T09:52:26.368Z,73.18
2017-01-08T09:53:26.381Z,73.18
2017-01-08T09:54:26.392Z,73.18
2017-01-08T09:55:26.403Z,72.99
2017-01-08T09:56:26.414Z,73.18
2017-01-08T09:57:26.454Z,73.18
2017-01-08T09:58:26.431Z,73.18
2017-01-08T09:59:26.441Z,73.08
2017-01-08T10:00:26.453Z,72.99
2017-01-08T10:01:26.465Z,72.89
2017-01-08T10:02:26.476Z,73.08
2017-01-08T10:03:26.488Z,72.99
2017-01-08T10:04:26.493Z,73.37
2017-01-08T10:05:26.507Z,72.71
2017-01-08T10:06:26.513Z,73.18
2017-01-08T10:07:26.526Z,73.18
2017-01-08T10:08:26.539Z,72.8
2017-01-08T10:09:26.548Z,73.37
2017-01-08T10:10:26.561Z,73.37
2017-01-08T10:11:26.573Z,73.08
2017-01-08T10:12:26.579Z,73.18
2017-01-08T10:13:26.591Z,73.27
2017-01-08T10:14:26.602Z,73.37
2017-01-08T10:15:26.611Z,73.18
2017-01-08T10:16:26.619Z,73.18
2017-01-08T10:17:26.632Z,73.18
2017-01-08T10:18:26.648Z,73.27
2017-01-08T10:19:26.651Z,73.08
2017-01-08T10:20:26.665Z,73.18
2017-01-08T10:21:26.668Z,73.18
2017-01-08T10:22:26.684Z,73.37
2017-01-08T10:23:26.695Z,73.18
2017-01-08T10:24:26.735Z,73.27
2017-01-08T10:25:26.719Z,73.18
2017-01-08T10:26:26.724Z,73.18
2017-01-08T10:27:26.738Z,73.37
2017-01-08T10:28:26.751Z,73.08
2017-01-08T10:29:26.758Z,73.08
2017-01-08T10:30:26.764Z,73.37
2017-01-08T10:31:26.778Z,72.8
2017-01-08T10:32:26.788Z,72.89
2017-01-08T10:33:26.802Z,72.99
2017-01-08T10:34:26.808Z,72.99
2017-01-08T10:35:26.817Z,72.89
2017-01-08T10:36:26.829Z,72.71
2017-01-08T10:37:26.839Z,72.89
2017-01-08T10:38:26.852Z,72.89
2017-01-08T10:39:26.858Z,72.71
2017-01-08T10:40:26.869Z,73.27
2017-01-08T10:41:26.880Z,72.89
2017-01-08T10:42:26.890Z,73.08
2017-01-08T10:43:26.932Z,73.08
2017-01-08T10:44:26.912Z,73.27
2017-01-08T10:45:26.920Z,73.18
2017-01-08T10:46:26.932Z,72.8
2017-01-08T10:47:26.942Z,73.18
2017-01-08T10:48:26.955Z,73.27
2017-01-08T10:49:26.963Z,73.37
2017-01-08T10:50:26.978Z,73.08
2017-01-08T10:51:26.982Z,73.27
2017-01-08T10:52:26.998Z,73.08
2017-01-08T10:53:27.007Z,72.99
2017-01-08T10:54:27.022Z,73.18
2017-01-08T10:55:27.025Z,72.8
2017-01-08T10:56:27.037Z,72.71
2017-01-08T10:57:27.052Z,73.08
2017-01-08T10:58:27.061Z,73.37
2017-01-08T10:59:27.069Z,73.18
2017-01-08T11:00:27.077Z,73.18
2017-01-08T11:01:27.089Z,73.37
2017-01-08T11:02:27.099Z,73.37
2017-01-08T11:03:27.110Z,73.18
2017-01-08T11:04:27.123Z,73.37
2017-01-08T11:05:27.132Z,73.37
2017-01-08T11:06:27.140Z,73.08
2017-01-08T11:07:27.153Z,73.27
2017-01-08T11:08:27.170Z,73.27
2017-01-08T11:09:27.173Z,72.71
2017-01-08T11:10:27.187Z,72.89
2017-01-08T11:11:27.195Z,73.18
2017-01-08T11:12:27.212Z,73.18
2017-01-08T11:13:27.225Z,73.18
2017-01-08T11:14:27.226Z,73.18
2017-01-08T11:15:27.239Z,72.61
2017-01-08T11:16:27.249Z,72.99
2017-01-08T11:17:27.260Z,73.37
2017-01-08T11:18:27.272Z,72.71
2017-01-08T11:19:27.282Z,72.52
2017-01-08T11:20:27.289Z,72.99
2017-01-08T11:21:27.303Z,72.99
2017-01-08T11:22:27.311Z,73.37
2017-01-08T11:23:27.325Z,72.89
2017-01-08T11:24:27.329Z,72.89
2017-01-08T11:25:27.342Z,73.46
2017-01-08T11:26:27.357Z,72.89
2017-01-08T11:27:27.363Z,73.46
2017-01-08T11:28:27.392Z,72.99
2017-01-08T11:29:27.385Z,72.99
2017-01-08T11:30:27.401Z,72.89
2017-01-08T11:31:27.417Z,73.18
2017-01-08T11:32:27.418Z,73.27
2017-01-08T11:33:27.429Z,72.8
2017-01-08T11:34:27.439Z,73.18
2017-01-08T11:35:27.445Z,72.8
2017-01-08T11:36:27.458Z,72.99
2017-01-08T11:37:27.490Z,72.8
2017-01-08T11:38:27.483Z,72.8
2017-01-08T11:39:27.492Z,73.18
2017-01-08T11:40:27.501Z,72.89
2017-01-08T11:41:27.512Z,72.99
2017-01-08T11:42:27.523Z,72.99
2017-01-08T11:43:27.530Z,73.37
2017-01-08T11:44:27.543Z,72.71
2017-01-08T11:45:27.553Z,73.08
2017-01-08T11:46:27.567Z,73.27
2017-01-08T11:47:27.576Z,73.37
2017-01-08T11:48:27.582Z,73.37
2017-01-08T11:49:27.598Z,73.27
2017-01-08T11:50:27.605Z,73.37
2017-01-08T11:51:27.619Z,73.08
2017-01-08T11:52:27.627Z,72.8
2017-01-08T11:53:27.639Z,73.18
2017-01-08T11:54:27.655Z,73.18
2017-01-08T11:55:27.659Z,73.46
2017-01-08T11:56:27.681Z,73.46
2017-01-08T11:57:27.681Z,73.46
2017-01-08T11:58:27.695Z,73.75
2017-01-08T11:59:27.704Z,73.37
2017-01-08T12:00:27.711Z,73.75
2017-01-08T12:01:27.724Z,73.65
2017-01-08T12:02:27.730Z,73.56
2017-01-08T12:03:27.746Z,73.08
2017-01-08T12:04:27.751Z,72.99
2017-01-08T12:05:27.762Z,73.08
2017-01-08T12:06:27.776Z,73.46
2017-01-08T12:07:27.784Z,73.65
2017-01-08T12:08:27.795Z,73.56
2017-01-08T12:09:27.803Z,73.75
2017-01-08T12:10:27.817Z,73.65
2017-01-08T12:11:27.825Z,73.37
2017-01-08T12:12:27.836Z,73.37
2017-01-08T12:13:27.904Z,73.46
2017-01-08T12:14:27.871Z,73.65
2017-01-08T12:15:27.872Z,73.56
2017-01-08T12:16:27.878Z,73.56
2017-01-08T12:17:27.892Z,73.65
2017-01-08T12:18:27.902Z,73.65
2017-01-08T12:19:27.913Z,73.65
2017-01-08T12:20:27.922Z,73.27
2017-01-08T12:21:27.933Z,73.46
2017-01-08T12:22:27.940Z,73.46
2017-01-08T12:23:27.955Z,73.75
2017-01-08T12:24:27.965Z,73.37
2017-01-08T12:25:27.975Z,73.46
2017-01-08T12:26:27.990Z,73.56
2017-01-08T12:27:27.998Z,73.56
2017-01-08T12:28:28.007Z,73.46
2017-01-08T12:29:28.013Z,73.46
2017-01-08T12:30:28.026Z,73.37
2017-01-08T12:31:28.038Z,73.65
2017-01-08T12:32:28.049Z,73.75
2017-01-08T12:33:28.056Z,73.37
2017-01-08T12:34:28.069Z,73.56
2017-01-08T12:35:28.084Z,73.56
2017-01-08T12:36:28.095Z,73.65
2017-01-08T12:37:28.102Z,73.84
2017-01-08T12:38:28.113Z,73.75
2017-01-08T12:39:28.124Z,73.65
2017-01-08T12:40:28.132Z,73.75
2017-01-08T12:41:28.146Z,73.56
2017-01-08T12:42:28.154Z,73.37
2017-01-08T12:43:28.168Z,73.56
2017-01-08T12:44:28.174Z,73.75
2017-01-08T12:45:28.182Z,73.65
2017-01-08T12:46:28.197Z,73.46
2017-01-08T12:47:28.211Z,73.56
2017-01-08T12:48:28.214Z,73.56
2017-01-08T12:49:28.225Z,73.08
2017-01-08T12:50:28.244Z,73.65
2017-01-08T12:51:28.245Z,73.65
2017-01-08T12:52:28.257Z,73.46
2017-01-08T12:53:28.265Z,73.75